Time;durP1;ratioP1;P1;durP2;ratioP2;P2;SDS_P1;SDS_P2;PMS_P1;PMS_P2;Temp;Humidity;BMP_temperature;BMP_pressure;BME280_temperature;BME280_humidity;BME280_pressure;Samples;Min_cycle;Max_cycle;Signal;HPM_P1;HPM_P2
2021/11/29 00:02:07;;;;;;;7.90;5.87;;;4.90;84.90;;;;;;5036276;28;20223;-69
2021/11/29 00:04:34;;;;;;;9.50;6.97;;;4.90;85.10;;;;;;5052134;28;20228;-69
2021/11/29 00:07:02;;;;;;;10.33;5.73;;;4.90;85.00;;;;;;5041359;28;20616;-69
2021/11/29 00:09:29;;;;;;;7.63;5.90;;;4.90;85.00;;;;;;5029905;28;20667;-69
2021/11/29 00:11:56;;;;;;;7.17;5.47;;;4.80;85.00;;;;;;5041331;28;20568;-69
2021/11/29 00:14:23;;;;;;;8.47;6.10;;;4.80;85.00;;;;;;5052556;28;20221;-69
2021/11/29 00:16:52;;;;;;;7.57;6.07;;;4.80;85.10;;;;;;5050132;28;20272;-69
2021/11/29 00:19:19;;;;;;;7.17;5.73;;;4.80;85.40;;;;;;5050937;28;20298;-69
2021/11/29 00:21:47;;;;;;;9.43;6.17;;;4.80;85.40;;;;;;5049135;28;20218;-69
2021/11/29 00:24:14;;;;;;;7.40;5.93;;;4.80;85.40;;;;;;5049223;28;20215;-69
2021/11/29 00:26:41;;;;;;;10.57;6.53;;;4.80;85.40;;;;;;5042180;28;20253;-69
2021/11/29 00:29:08;;;;;;;6.40;5.63;;;4.80;85.50;;;;;;5047644;28;20221;-69
2021/11/29 00:31:35;;;;;;;8.03;5.77;;;4.80;85.60;;;;;;5047593;28;20685;-69
2021/11/29 00:34:03;;;;;;;7.87;6.57;;;4.80;85.40;;;;;;5047718;28;20249;-69
2021/11/29 00:36:30;;;;;;;8.53;6.53;;;4.80;85.20;;;;;;5037888;28;20630;-69
2021/11/29 00:38:57;;;;;;;7.57;6.33;;;4.80;85.20;;;;;;5041669;28;20215;-70
2021/11/29 00:41:24;;;;;;;8.73;6.60;;;4.80;85.20;;;;;;5041256;28;20210;-69
2021/11/29 00:43:51;;;;;;;9.27;6.63;;;4.70;85.20;;;;;;5043676;28;20271;-69
2021/11/29 00:46:18;;;;;;;10.63;6.43;;;4.70;85.20;;;;;;5043110;28;20288;-69
2021/11/29 00:48:45;;;;;;;9.23;6.00;;;4.80;85.30;;;;;;5040766;28;20223;-69
2021/11/29 00:51:12;;;;;;;9.33;5.87;;;4.80;85.30;;;;;;5042638;28;20219;-69
2021/11/29 00:53:39;;;;;;;7.93;5.53;;;4.80;85.40;;;;;;5043846;28;20214;-69
2021/11/29 00:56:06;;;;;;;9.17;5.83;;;4.80;85.40;;;;;;5043134;28;20526;-69
2021/11/29 00:58:34;;;;;;;10.60;7.00;;;4.80;85.40;;;;;;5040460;28;20234;-69
2021/11/29 01:01:01;;;;;;;8.23;6.03;;;4.80;85.20;;;;;;5040089;28;20467;-69
2021/11/29 01:03:29;;;;;;;8.47;6.27;;;4.80;85.10;;;;;;5044987;28;20275;-69
2021/11/29 01:05:56;;;;;;;8.80;6.03;;;4.80;85.00;;;;;;5047462;28;20214;-69
2021/11/29 01:08:24;;;;;;;8.93;6.17;;;4.80;84.80;;;;;;5046183;28;20215;-69
2021/11/29 01:10:51;;;;;;;8.40;5.90;;;4.80;84.60;;;;;;5041252;28;20272;-69
2021/11/29 01:13:18;;;;;;;8.60;5.93;;;4.70;84.20;;;;;;5030917;28;20684;-69
2021/11/29 01:15:45;;;;;;;10.23;5.93;;;4.70;83.00;;;;;;5035240;28;20222;-69
2021/11/29 01:18:12;;;;;;;8.73;5.90;;;4.60;83.00;;;;;;5035707;28;20221;-69
2021/11/29 01:20:43;;;;;;;7.30;5.63;;;4.50;83.50;;;;;;5037748;28;20248;-69
2021/11/29 01:23:12;;;;;;;8.27;5.77;;;4.50;83.90;;;;;;5050278;28;20210;-69
2021/11/29 01:25:40;;;;;;;7.67;5.90;;;4.40;83.80;;;;;;5013985;28;20220;-69
2021/11/29 01:28:07;;;;;;;8.40;6.03;;;4.30;83.60;;;;;;5038277;28;20606;-69
2021/11/29 01:30:34;;;;;;;10.07;6.70;;;4.30;83.70;;;;;;5035057;28;20211;-69
2021/11/29 01:33:02;;;;;;;12.57;6.83;;;4.20;84.10;;;;;;5037229;28;20241;-69
2021/11/29 01:35:30;;;;;;;9.03;6.07;;;4.20;84.50;;;;;;5037229;28;20271;-69
2021/11/29 01:37:57;;;;;;;10.37;6.03;;;4.10;84.00;;;;;;5038410;28;20246;-69
2021/11/29 01:40:25;;;;;;;7.80;5.70;;;4.00;84.00;;;;;;5051226;28;20222;-69
2021/11/29 01:43:04;;;;;;;11.17;7.30;;;4.00;84.60;;;;;;5046533;28;20218;-69
2021/11/29 01:45:38;;;;;;;9.60;6.40;;;4.00;84.90;;;;;;5040500;28;20225;-69
2021/11/29 01:48:06;;;;;;;8.63;6.57;;;3.90;85.30;;;;;;5041410;28;20210;-69
2021/11/29 01:50:34;;;;;;;8.87;5.67;;;4.00;85.50;;;;;;5037504;28;20221;-69
2021/11/29 01:53:04;;;;;;;9.33;6.57;;;3.90;85.50;;;;;;5038158;28;20555;-69
2021/11/29 01:55:33;;;;;;;8.43;6.07;;;3.90;85.70;;;;;;5036181;28;20634;-69
2021/11/29 01:58:00;;;;;;;8.03;6.00;;;3.90;85.70;;;;;;5041430;28;20214;-69
2021/11/29 02:00:30;;;;;;;8.83;5.87;;;3.80;85.80;;;;;;5042970;28;20218;-69
2021/11/29 02:02:58;;;;;;;8.57;7.07;;;3.80;86.10;;;;;;5045968;28;20226;-69
2021/11/29 02:05:26;;;;;;;8.00;6.30;;;3.80;86.10;;;;;;5046520;28;20220;-69
2021/11/29 02:07:54;;;;;;;9.03;6.30;;;3.80;86.00;;;;;;5044954;28;20218;-69
2021/11/29 02:10:23;;;;;;;8.80;5.73;;;3.80;86.00;;;;;;5045071;28;20249;-69
2021/11/29 02:12:50;;;;;;;9.03;6.30;;;3.80;85.70;;;;;;5044947;28;20230;-69
2021/11/29 02:15:19;;;;;;;7.43;5.67;;;3.80;85.90;;;;;;5043229;28;20219;-69
2021/11/29 02:17:47;;;;;;;7.30;5.70;;;3.70;86.20;;;;;;5046962;28;20211;-69
2021/11/29 02:20:17;;;;;;;8.30;6.00;;;3.70;86.30;;;;;;5045987;28;20283;-69
2021/11/29 02:22:44;;;;;;;12.40;6.40;;;3.70;86.30;;;;;;5047959;28;20218;-69
2021/11/29 02:25:12;;;;;;;8.83;6.10;;;3.60;86.40;;;;;;5037201;28;20453;-69
2021/11/29 02:27:44;;;;;;;6.53;5.77;;;3.60;86.20;;;;;;5041077;28;20226;-69
2021/11/29 02:30:13;;;;;;;8.73;5.37;;;3.60;86.40;;;;;;5039182;28;20272;-69
2021/11/29 02:32:40;;;;;;;10.00;6.40;;;3.50;86.50;;;;;;5045716;28;20222;-69
2021/11/29 02:35:07;;;;;;;9.50;6.37;;;3.50;85.90;;;;;;5050056;28;20210;-69
2021/11/29 02:37:35;;;;;;;8.30;5.80;;;3.40;86.30;;;;;;5043127;28;20561;-69
2021/11/29 02:40:03;;;;;;;11.87;6.53;;;3.40;86.50;;;;;;5042552;28;20215;-69
2021/11/29 02:42:30;;;;;;;10.37;6.87;;;3.40;86.80;;;;;;5045663;28;20210;-69
2021/11/29 02:44:57;;;;;;;10.67;6.80;;;3.40;86.70;;;;;;5035241;28;20631;-69
2021/11/29 02:47:24;;;;;;;10.70;5.97;;;3.30;87.00;;;;;;5049205;28;20211;-69
2021/11/29 02:49:51;;;;;;;9.37;6.53;;;3.30;87.30;;;;;;5053843;28;20222;-69
2021/11/29 02:52:20;;;;;;;9.57;6.30;;;3.30;87.00;;;;;;5038253;28;20234;-69
2021/11/29 02:54:48;;;;;;;10.03;6.93;;;3.30;86.90;;;;;;5036707;28;20211;-69
2021/11/29 02:57:19;;;;;;;11.93;7.30;;;3.30;87.10;;;;;;5053468;28;20214;-69
2021/11/29 02:59:46;;;;;;;9.80;6.63;;;3.30;87.00;;;;;;5053125;28;20604;-69
2021/11/29 03:02:17;;;;;;;7.83;6.00;;;3.40;87.20;;;;;;5037686;28;20586;-69
2021/11/29 03:04:45;;;;;;;10.33;7.17;;;3.40;87.10;;;;;;5049802;28;20217;-69
2021/11/29 03:07:14;;;;;;;8.70;6.97;;;3.40;87.10;;;;;;5034970;28;20230;-69
2021/11/29 03:09:41;;;;;;;11.67;6.50;;;3.50;87.20;;;;;;5039518;28;20706;-69
2021/11/29 03:12:09;;;;;;;9.43;7.17;;;3.50;87.10;;;;;;5048020;28;20277;-69
2021/11/29 03:14:36;;;;;;;11.47;7.43;;;3.50;87.10;;;;;;5046519;28;20214;-69
2021/11/29 03:17:04;;;;;;;7.67;6.77;;;3.50;87.20;;;;;;5043504;28;20773;-69
2021/11/29 03:19:34;;;;;;;9.37;7.37;;;3.50;87.30;;;;;;5040075;28;20206;-69
2021/11/29 03:22:04;;;;;;;10.00;7.70;;;3.50;87.30;;;;;;5045219;28;20211;-69
2021/11/29 03:24:31;;;;;;;7.50;6.57;;;3.50;87.20;;;;;;5043385;28;20226;-70
2021/11/29 03:26:58;;;;;;;11.67;7.43;;;3.50;86.90;;;;;;5042035;28;20264;-70
2021/11/29 03:29:29;;;;;;;8.80;6.07;;;3.50;87.20;;;;;;5046091;28;20218;-70
2021/11/29 03:32:01;;;;;;;11.07;7.10;;;3.50;87.40;;;;;;5039991;28;20209;-70
2021/11/29 03:34:29;;;;;;;10.33;7.17;;;3.50;87.40;;;;;;5041867;28;20238;-70
2021/11/29 03:36:58;;;;;;;10.20;7.07;;;3.50;87.50;;;;;;5044078;28;20203;-70
2021/11/29 03:39:27;;;;;;;8.63;6.63;;;3.50;87.60;;;;;;5039846;28;20306;-70
2021/11/29 03:41:58;;;;;;;9.50;7.43;;;3.50;87.60;;;;;;5051405;28;20208;-70
2021/11/29 03:44:25;;;;;;;8.27;6.67;;;3.50;87.70;;;;;;5040613;28;20241;-70
2021/11/29 03:46:54;;;;;;;8.93;6.77;;;3.50;87.60;;;;;;5039766;28;20210;-70
2021/11/29 03:49:22;;;;;;;8.73;6.80;;;3.50;87.30;;;;;;5045607;28;20206;-70
2021/11/29 03:51:50;;;;;;;9.63;6.83;;;3.40;87.30;;;;;;5041619;28;20207;-70
2021/11/29 03:54:17;;;;;;;9.00;6.73;;;3.40;87.50;;;;;;5049726;28;20214;-70
2021/11/29 03:56:45;;;;;;;10.13;8.17;;;3.40;87.50;;;;;;5049531;28;20218;-70
2021/11/29 03:59:12;;;;;;;11.00;7.70;;;3.40;87.30;;;;;;5049916;28;20225;-70
2021/11/29 04:01:39;;;;;;;8.73;7.07;;;3.30;87.80;;;;;;5050400;28;20222;-70
2021/11/29 04:04:06;;;;;;;11.13;7.40;;;3.30;87.70;;;;;;5051990;28;20297;-70
2021/11/29 04:06:33;;;;;;;13.47;9.27;;;3.40;88.10;;;;;;5046955;28;20215;-70
2021/11/29 04:09:04;;;;;;;8.87;7.13;;;3.30;88.50;;;;;;5030118;28;20253;-70
2021/11/29 04:11:32;;;;;;;10.00;7.43;;;3.40;88.80;;;;;;5038765;28;20210;-70
2021/11/29 04:13:59;;;;;;;11.00;7.43;;;3.50;88.90;;;;;;5051540;28;20256;-70
2021/11/29 04:16:26;;;;;;;10.20;7.20;;;3.50;89.70;;;;;;5043293;28;20218;-70
2021/11/29 04:18:53;;;;;;;10.03;7.27;;;3.50;89.00;;;;;;5047968;28;20214;-70
2021/11/29 04:21:20;;;;;;;10.23;7.93;;;3.60;89.00;;;;;;5050136;28;20213;-70
2021/11/29 04:23:48;;;;;;;12.10;8.00;;;3.60;89.00;;;;;;5049738;28;20214;-70
2021/11/29 04:26:17;;;;;;;10.70;7.97;;;3.60;89.10;;;;;;5033031;28;20434;-70
2021/11/29 04:28:45;;;;;;;12.07;8.00;;;3.60;89.20;;;;;;5036790;28;20555;-70
2021/11/29 04:31:12;;;;;;;10.70;7.97;;;3.60;89.20;;;;;;5037318;28;20319;-68
2021/11/29 04:33:39;;;;;;;13.07;8.43;;;3.60;89.40;;;;;;5045972;28;20266;-69
2021/11/29 04:36:06;;;;;;;13.23;7.63;;;3.60;89.40;;;;;;5040974;28;20206;-70
2021/11/29 04:38:34;;;;;;;9.33;7.90;;;3.60;89.40;;;;;;5040208;28;20568;-70
2021/11/29 04:41:01;;;;;;;11.73;7.83;;;3.60;89.50;;;;;;5040019;28;20268;-70
2021/11/29 04:43:29;;;;;;;10.30;8.10;;;3.60;89.50;;;;;;5037749;28;20226;-70
2021/11/29 04:45:56;;;;;;;11.80;8.17;;;3.60;89.50;;;;;;5042924;28;20287;-70
2021/11/29 04:48:23;;;;;;;9.33;8.27;;;3.60;89.40;;;;;;5043801;28;20615;-70
2021/11/29 04:50:50;;;;;;;9.47;8.43;;;3.60;89.40;;;;;;5041510;28;20581;-70
2021/11/29 04:53:18;;;;;;;10.13;8.23;;;3.50;89.50;;;;;;5039359;28;20671;-70
2021/11/29 04:55:45;;;;;;;13.70;8.67;;;3.50;89.80;;;;;;5040174;28;20628;-70
2021/11/29 04:58:12;;;;;;;11.57;7.73;;;3.50;89.80;;;;;;5040035;28;20233;-70
2021/11/29 05:00:40;;;;;;;12.13;8.63;;;3.50;89.80;;;;;;5039140;28;20229;-70
2021/11/29 05:03:07;;;;;;;13.33;9.50;;;3.50;90.00;;;;;;5044662;28;20275;-70
2021/11/29 05:05:34;;;;;;;13.30;8.17;;;3.50;90.20;;;;;;5039207;28;20662;-70
2021/11/29 05:08:21;;;;;;;10.73;8.20;;;3.50;90.30;;;;;;5041171;28;20223;-70
2021/11/29 05:10:48;;;;;;;12.90;9.07;;;3.50;90.30;;;;;;5050724;28;20229;-69
2021/11/29 05:13:18;;;;;;;12.87;8.97;;;3.50;90.30;;;;;;5052089;28;20234;-69
2021/11/29 05:15:45;;;;;;;9.80;7.67;;;3.50;90.40;;;;;;5051838;28;20241;-69
2021/11/29 05:18:12;;;;;;;11.63;8.80;;;3.50;90.40;;;;;;5043189;28;20215;-69
2021/11/29 05:20:39;;;;;;;12.10;8.83;;;3.50;90.50;;;;;;5040521;28;20222;-69
2021/11/29 05:23:06;;;;;;;10.40;8.53;;;3.50;90.50;;;;;;5054837;28;20219;-69
2021/11/29 05:25:33;;;;;;;12.13;8.53;;;3.50;90.40;;;;;;5054209;28;20221;-69
2021/11/29 05:28:00;;;;;;;9.70;8.23;;;3.50;90.40;;;;;;5048422;28;20215;-69
2021/11/29 05:30:28;;;;;;;11.50;8.67;;;3.50;90.40;;;;;;5032794;28;20215;-69
2021/11/29 05:32:56;;;;;;;15.00;9.00;;;3.50;90.50;;;;;;5036959;28;20305;-69
2021/11/29 05:35:24;;;;;;;12.30;10.00;;;3.50;90.60;;;;;;5037416;28;20559;-69
2021/11/29 05:37:51;;;;;;;10.73;8.70;;;3.60;90.60;;;;;;5047177;28;20260;-69
2021/11/29 05:40:18;;;;;;;12.13;7.90;;;3.50;90.50;;;;;;5051729;28;20227;-69
2021/11/29 05:42:46;;;;;;;10.13;8.13;;;3.60;90.60;;;;;;5046423;28;20284;-69
2021/11/29 05:45:14;;;;;;;12.67;9.13;;;3.60;90.60;;;;;;5048850;28;20295;-70
2021/11/29 05:47:42;;;;;;;13.43;9.60;;;3.60;90.70;;;;;;5035638;28;20215;-70
2021/11/29 05:50:11;;;;;;;13.13;9.63;;;3.60;90.70;;;;;;5040632;28;20289;-70
2021/11/29 05:52:40;;;;;;;14.63;10.27;;;3.70;90.80;;;;;;5047020;28;20215;-70
2021/11/29 05:55:08;;;;;;;16.47;9.77;;;3.70;90.70;;;;;;5040657;28;20210;-70
2021/11/29 05:57:37;;;;;;;12.33;9.57;;;3.70;90.70;;;;;;5044736;28;20226;-70
2021/11/29 06:00:09;;;;;;;14.37;9.90;;;3.70;90.80;;;;;;5037948;28;20226;-70
2021/11/29 06:02:38;;;;;;;10.87;8.97;;;3.70;90.80;;;;;;5042827;28;20227;-70
2021/11/29 06:05:06;;;;;;;12.57;9.63;;;3.70;90.80;;;;;;5039810;28;20211;-70
2021/11/29 06:07:34;;;;;;;11.70;9.13;;;3.70;90.80;;;;;;5043986;28;20215;-68
2021/11/29 06:10:01;;;;;;;11.47;9.17;;;3.70;90.70;;;;;;5046773;28;20265;-69
2021/11/29 06:12:28;;;;;;;13.93;8.67;;;3.80;90.50;;;;;;5043199;28;20264;-69
2021/11/29 06:14:55;;;;;;;13.23;8.07;;;3.70;90.60;;;;;;5027862;28;20215;-69
2021/11/29 06:17:23;;;;;;;12.53;8.67;;;3.70;90.60;;;;;;5045636;28;20432;-69
2021/11/29 06:19:50;;;;;;;12.47;8.83;;;3.70;90.60;;;;;;5040895;28;20221;-69
2021/11/29 06:22:17;;;;;;;11.90;8.27;;;3.70;90.60;;;;;;5044483;28;20268;-69
2021/11/29 06:24:44;;;;;;;12.77;9.67;;;3.70;90.70;;;;;;5039467;28;20222;-69
2021/11/29 06:27:12;;;;;;;12.23;9.57;;;3.70;90.80;;;;;;5042109;28;20219;-70
2021/11/29 06:29:39;;;;;;;11.27;8.20;;;3.70;90.80;;;;;;5043331;28;20219;-70
2021/11/29 06:32:07;;;;;;;13.80;8.73;;;3.70;90.70;;;;;;5048801;28;20291;-70
2021/11/29 06:34:34;;;;;;;14.30;9.27;;;3.70;90.70;;;;;;5032634;28;20237;-70
2021/11/29 06:37:01;;;;;;;10.33;8.70;;;3.70;90.70;;;;;;5039112;28;20247;-70
2021/11/29 06:39:30;;;;;;;10.80;8.23;;;3.70;90.70;;;;;;5051480;28;20598;-70
2021/11/29 06:41:59;;;;;;;12.87;8.77;;;3.70;90.70;;;;;;5037219;28;20241;-70
2021/11/29 06:44:26;;;;;;;11.93;8.60;;;3.80;90.70;;;;;;5035405;28;20219;-70
2021/11/29 06:46:53;;;;;;;11.83;8.73;;;3.70;90.60;;;;;;5036677;28;20222;-70
2021/11/29 06:49:20;;;;;;;13.87;10.07;;;3.70;90.70;;;;;;5040668;28;20233;-70
2021/11/29 06:51:47;;;;;;;11.47;8.93;;;3.80;90.70;;;;;;5036360;28;20225;-69
2021/11/29 06:54:15;;;;;;;10.00;8.37;;;3.80;90.70;;;;;;5044644;28;20230;-69
2021/11/29 06:56:42;;;;;;;13.40;9.30;;;3.80;90.70;;;;;;5042968;28;20650;-69
2021/11/29 06:59:09;;;;;;;12.63;8.93;;;3.80;90.60;;;;;;5044490;28;20247;-69
2021/11/29 07:01:37;;;;;;;11.20;8.47;;;3.80;90.50;;;;;;5042666;28;20210;-69
2021/11/29 07:04:04;;;;;;;13.43;9.40;;;3.80;90.50;;;;;;5051384;28;20265;-69
2021/11/29 07:06:31;;;;;;;12.30;8.57;;;3.80;90.50;;;;;;5044491;28;20225;-69
2021/11/29 07:08:58;;;;;;;16.77;8.07;;;3.90;90.60;;;;;;5047102;28;20246;-69
2021/11/29 07:11:25;;;;;;;14.80;8.60;;;3.90;90.60;;;;;;5047130;28;20226;-69
2021/11/29 07:13:52;;;;;;;12.87;9.60;;;4.00;90.60;;;;;;5032790;28;20296;-69
2021/11/29 07:16:20;;;;;;;11.07;8.70;;;4.00;90.50;;;;;;5039445;28;20281;-69
2021/11/29 07:18:47;;;;;;;13.20;8.77;;;4.00;90.50;;;;;;5042823;28;20599;-69
2021/11/29 07:21:14;;;;;;;15.17;9.23;;;4.00;90.30;;;;;;5043416;28;20229;-69
2021/11/29 07:23:41;;;;;;;15.93;8.97;;;4.00;90.20;;;;;;5041586;28;20221;-69
2021/11/29 07:26:08;;;;;;;19.10;8.90;;;4.00;90.10;;;;;;5041256;28;20214;-69
2021/11/29 07:28:37;;;;;;;10.63;8.53;;;4.00;90.00;;;;;;5037320;28;20254;-69
2021/11/29 07:31:04;;;;;;;12.73;8.60;;;4.00;89.70;;;;;;5038418;28;20681;-69
2021/11/29 07:33:32;;;;;;;10.73;8.63;;;4.00;89.20;;;;;;5038652;28;20235;-70
2021/11/29 07:35:59;;;;;;;14.00;8.93;;;3.90;89.50;;;;;;5044617;28;20223;-70
2021/11/29 07:38:28;;;;;;;13.73;9.13;;;3.90;89.10;;;;;;5041540;28;20207;-70
2021/11/29 07:40:55;;;;;;;14.20;9.03;;;3.90;89.10;;;;;;5036073;28;20198;-70
2021/11/29 07:43:22;;;;;;;13.17;8.87;;;3.90;89.70;;;;;;5041493;28;20241;-70
2021/11/29 07:45:49;;;;;;;10.37;8.73;;;3.90;89.90;;;;;;5046084;28;20287;-70
2021/11/29 07:48:18;;;;;;;17.97;8.03;;;4.00;90.00;;;;;;5040379;28;20211;-68
2021/11/29 07:50:45;;;;;;;10.37;8.83;;;4.00;90.00;;;;;;5037009;28;20219;-69
2021/11/29 07:53:12;;;;;;;11.53;8.03;;;4.00;90.10;;;;;;5044157;28;20228;-68
2021/11/29 07:55:39;;;;;;;12.93;8.87;;;4.00;90.10;;;;;;5046798;28;20215;-69
2021/11/29 07:58:06;;;;;;;15.90;9.00;;;4.00;90.10;;;;;;5037898;28;20223;-69
2021/11/29 08:00:35;;;;;;;12.30;8.73;;;4.00;90.00;;;;;;5039551;28;20215;-69
2021/11/29 08:03:06;;;;;;;13.57;9.57;;;4.00;90.00;;;;;;5045734;28;20339;-69
2021/11/29 08:05:34;;;;;;;13.13;8.63;;;4.10;90.30;;;;;;5041527;28;20216;-69
2021/11/29 08:08:07;;;;;;;13.33;8.93;;;4.10;89.90;;;;;;5042601;28;20297;-69
2021/11/29 08:10:36;;;;;;;15.23;9.37;;;4.10;89.90;;;;;;5037896;28;20239;-69
2021/11/29 08:13:07;;;;;;;13.30;8.73;;;4.10;90.00;;;;;;5041711;28;20218;-69
2021/11/29 08:15:36;;;;;;;10.30;9.07;;;4.20;90.00;;;;;;5034166;28;20210;-69
2021/11/29 08:18:04;;;;;;;11.17;9.17;;;4.20;89.90;;;;;;5035907;28;20225;-69
2021/11/29 08:20:31;;;;;;;10.97;8.47;;;4.30;89.90;;;;;;5043165;28;20212;-69
2021/11/29 08:22:59;;;;;;;16.77;9.43;;;4.40;89.90;;;;;;5035575;28;20314;-69
2021/11/29 08:25:27;;;;;;;14.27;9.83;;;4.40;89.80;;;;;;5047581;28;20211;-69
2021/11/29 08:27:54;;;;;;;10.53;8.73;;;4.50;89.80;;;;;;5043512;28;20211;-69
2021/11/29 08:30:24;;;;;;;12.10;8.90;;;4.50;89.80;;;;;;5043188;28;20214;-69
2021/11/29 08:32:52;;;;;;;12.57;9.00;;;4.60;89.80;;;;;;5043330;28;20278;-69
2021/11/29 08:35:20;;;;;;;12.60;9.57;;;4.60;89.60;;;;;;5044288;28;20246;-69
2021/11/29 08:37:49;;;;;;;12.60;9.03;;;4.70;89.60;;;;;;5036155;28;20219;-69
2021/11/29 08:40:19;;;;;;;13.27;9.13;;;4.70;89.40;;;;;;5044984;28;20215;-68
2021/11/29 08:42:47;;;;;;;12.53;8.70;;;4.80;89.30;;;;;;5039523;28;20226;-69
2021/11/29 08:45:15;;;;;;;15.63;9.57;;;4.90;89.10;;;;;;5040168;28;20219;-69
2021/11/29 08:47:42;;;;;;;11.37;8.80;;;4.90;88.90;;;;;;5042311;28;20222;-69
2021/11/29 08:50:11;;;;;;;11.60;8.93;;;5.00;88.80;;;;;;5042104;28;20602;-69
2021/11/29 08:53:01;;;;;;;12.53;8.70;;;5.00;88.60;;;;;;5052737;28;20217;-69
2021/11/29 08:55:28;;;;;;;12.43;8.10;;;5.10;88.70;;;;;;5041968;28;20246;-69
2021/11/29 08:57:56;;;;;;;10.53;8.67;;;5.20;88.60;;;;;;5043717;28;20216;-68
2021/11/29 09:00:24;;;;;;;10.67;8.40;;;5.20;88.30;;;;;;5038176;28;20677;-69
2021/11/29 09:02:51;;;;;;;11.10;8.50;;;5.30;88.20;;;;;;5037527;28;20272;-69
2021/11/29 09:05:22;;;;;;;12.33;9.03;;;5.30;88.00;;;;;;5039094;28;20219;-69
2021/11/29 09:07:50;;;;;;;12.50;8.77;;;5.30;87.80;;;;;;5040857;28;20669;-69
2021/11/29 09:10:17;;;;;;;13.20;9.57;;;5.40;87.80;;;;;;5047308;28;20250;-69
2021/11/29 09:12:44;;;;;;;11.63;8.83;;;5.50;87.80;;;;;;5037564;28;20210;-69
2021/11/29 09:15:14;;;;;;;12.57;8.90;;;5.60;87.80;;;;;;5035139;28;20245;-69
2021/11/29 09:17:42;;;;;;;11.43;8.73;;;5.60;87.60;;;;;;5036929;28;20242;-67
2021/11/29 09:20:11;;;;;;;11.80;8.60;;;5.70;87.50;;;;;;5038959;28;20210;-69
2021/11/29 09:22:40;;;;;;;12.03;8.03;;;5.80;87.30;;;;;;5041549;28;20222;-69
2021/11/29 09:25:09;;;;;;;10.97;8.30;;;5.90;87.20;;;;;;5035211;28;20245;-69
2021/11/29 09:27:37;;;;;;;12.13;9.00;;;6.00;87.10;;;;;;5031720;28;20230;-68
2021/11/29 09:30:11;;;;;;;10.27;8.47;;;6.10;87.00;;;;;;5032248;28;20252;-68
2021/11/29 09:32:38;;;;;;;10.37;7.37;;;6.30;86.90;;;;;;5022247;28;20218;-68
2021/11/29 09:35:09;;;;;;;10.97;8.00;;;6.40;86.50;;;;;;5051544;28;20292;-68
2021/11/29 09:37:37;;;;;;;9.23;7.33;;;6.40;85.90;;;;;;5050230;28;20356;-68
2021/11/29 09:40:09;;;;;;;11.63;7.73;;;6.50;85.50;;;;;;5045358;28;20230;-68
2021/11/29 09:42:37;;;;;;;11.80;8.00;;;6.60;85.40;;;;;;5034837;28;20218;-68
2021/11/29 09:45:10;;;;;;;9.77;7.30;;;6.60;85.50;;;;;;5040505;28;20248;-68
2021/11/29 09:47:38;;;;;;;7.33;6.60;;;6.70;85.40;;;;;;5041933;28;20702;-68
2021/11/29 09:50:06;;;;;;;9.97;7.53;;;6.80;84.80;;;;;;5037784;28;20214;-68
2021/11/29 09:52:33;;;;;;;10.03;7.90;;;6.90;84.90;;;;;;5048606;28;20229;-68
2021/11/29 09:55:01;;;;;;;9.20;7.53;;;7.00;85.60;;;;;;5048333;28;20234;-68
2021/11/29 09:57:28;;;;;;;9.80;7.27;;;7.10;85.60;;;;;;5031844;28;20222;-68
2021/11/29 09:59:56;;;;;;;9.67;6.30;;;7.20;85.20;;;;;;5043931;28;20661;-69
2021/11/29 10:02:23;;;;;;;7.47;6.33;;;7.30;84.80;;;;;;5042306;28;20643;-69
2021/11/29 10:04:51;;;;;;;9.93;7.40;;;7.30;83.90;;;;;;5044982;28;20230;-69
2021/11/29 10:07:37;;;;;;;8.20;6.60;;;7.30;84.00;;;;;;5044044;28;20564;-69
2021/11/29 10:10:31;;;;;;;7.03;5.73;;;7.40;85.50;;;;;;5044221;28;20254;-68
2021/11/29 10:13:05;;;;;;;8.40;6.00;;;7.50;84.80;;;;;;5039731;28;20634;-68
2021/11/29 10:15:40;;;;;;;11.17;6.10;;;7.50;83.50;;;;;;5045016;28;20328;-68
2021/11/29 10:18:15;;;;;;;7.77;5.70;;;7.60;83.70;;;;;;5041589;28;20218;-68
2021/11/29 10:21:08;;;;;;;8.10;5.40;;;7.60;83.50;;;;;;5045734;28;20218;-68
2021/11/29 10:23:38;;;;;;;8.30;5.80;;;7.70;82.70;;;;;;5048488;28;20215;-68
2021/11/29 10:26:18;;;;;;;7.23;5.33;;;7.80;82.60;;;;;;5048029;28;20271;-68
2021/11/29 10:28:48;;;;;;;8.27;5.63;;;7.90;83.00;;;;;;5040365;28;20274;-68
2021/11/29 10:31:38;;;;;;;9.40;6.00;;;8.00;83.10;;;;;;5049479;28;20214;-68
2021/11/29 10:34:13;;;;;;;9.10;6.23;;;8.10;82.60;;;;;;5042400;28;20244;-68
2021/11/29 10:36:42;;;;;;;5.77;4.67;;;8.30;82.10;;;;;;5035383;28;20281;-69
2021/11/29 10:39:20;;;;;;;5.43;4.40;;;8.40;82.30;;;;;;5038137;28;20289;-68
2021/11/29 10:41:55;;;;;;;5.20;4.27;;;8.50;80.50;;;;;;5042990;28;20221;-68
2021/11/29 10:44:29;;;;;;;5.63;4.07;;;8.50;79.20;;;;;;5034104;28;20210;-68
2021/11/29 10:47:02;;;;;;;5.57;3.90;;;8.40;79.50;;;;;;5036152;28;20276;-68
2021/11/29 10:49:33;;;;;;;5.43;4.03;;;8.50;78.90;;;;;;5035566;28;20709;-69
2021/11/29 10:52:01;;;;;;;8.13;3.63;;;8.50;77.90;;;;;;5035366;28;20269;-69
2021/11/29 10:54:31;;;;;;;5.10;3.53;;;8.60;78.20;;;;;;5039686;28;20325;-68
2021/11/29 10:57:00;;;;;;;5.03;3.97;;;8.60;77.70;;;;;;5034993;28;20293;-68
2021/11/29 10:59:30;;;;;;;6.30;4.30;;;8.50;77.40;;;;;;5037124;28;20226;-68
2021/11/29 11:02:12;;;;;;;6.07;4.30;;;8.50;77.90;;;;;;5034106;28;20226;-68
2021/11/29 11:04:43;;;;;;;4.33;3.80;;;8.50;77.90;;;;;;5048264;28;20306;-68
2021/11/29 11:07:25;;;;;;;14.60;4.73;;;8.40;78.80;;;;;;5047244;28;20219;-68
2021/11/29 11:09:57;;;;;;;6.33;4.00;;;8.40;79.10;;;;;;5046587;28;20807;-68
2021/11/29 11:12:27;;;;;;;5.50;3.87;;;8.40;78.60;;;;;;5047481;28;20553;-68
2021/11/29 11:15:00;;;;;;;6.90;4.90;;;8.50;78.60;;;;;;5042919;28;20245;-68
2021/11/29 11:17:56;;;;;;;5.27;4.73;;;8.50;78.70;;;;;;5040764;28;20595;-68
2021/11/29 11:20:24;;;;;;;5.40;4.90;;;8.50;79.00;;;;;;5044097;28;20225;-69
2021/11/29 11:22:52;;;;;;;6.07;4.13;;;8.50;79.20;;;;;;5037418;28;20215;-68
2021/11/29 11:25:24;;;;;;;5.70;4.40;;;8.40;78.20;;;;;;5043433;28;20619;-69
2021/11/29 11:28:08;;;;;;;6.83;5.13;;;8.30;78.80;;;;;;5042178;28;20219;-68
2021/11/29 11:30:41;;;;;;;6.50;5.47;;;8.30;79.30;;;;;;5042765;28;20545;-68
2021/11/29 11:33:15;;;;;;;6.77;5.67;;;8.20;79.70;;;;;;5043207;28;20230;-69
2021/11/29 11:35:45;;;;;;;6.97;6.13;;;8.30;80.60;;;;;;5038956;28;20269;-69
2021/11/29 11:38:19;;;;;;;7.03;5.43;;;8.30;79.60;;;;;;5045426;28;20245;-68
2021/11/29 11:40:49;;;;;;;7.17;6.23;;;8.20;79.80;;;;;;5043377;28;20264;-68
2021/11/29 11:43:19;;;;;;;7.93;6.17;;;8.20;80.80;;;;;;5046336;28;20214;-69
2021/11/29 11:45:49;;;;;;;7.97;6.00;;;8.30;81.00;;;;;;5037871;28;20576;-69
2021/11/29 11:48:17;;;;;;;7.50;5.53;;;8.30;80.80;;;;;;5038478;28;20211;-69
2021/11/29 11:50:48;;;;;;;7.87;6.27;;;8.40;81.20;;;;;;5038523;28;20214;-68
2021/11/29 11:53:15;;;;;;;6.73;5.27;;;8.40;81.40;;;;;;5064326;28;20614;-68
2021/11/29 11:55:46;;;;;;;6.47;4.70;;;8.50;81.20;;;;;;5036661;28;20289;-69
2021/11/29 11:58:25;;;;;;;6.93;4.77;;;8.50;80.30;;;;;;5038337;28;20219;-69
2021/11/29 12:01:17;;;;;;;5.13;4.03;;;8.60;80.70;;;;;;5046683;28;20218;-69
2021/11/29 12:03:49;;;;;;;5.87;4.97;;;8.70;80.00;;;;;;5034830;28;20284;-69
2021/11/29 12:06:18;;;;;;;5.63;4.50;;;8.70;79.70;;;;;;5047048;28;20214;-69
2021/11/29 12:08:56;;;;;;;9.13;4.83;;;8.70;79.40;;;;;;5047633;28;20247;-69
2021/11/29 12:11:27;;;;;;;5.30;4.23;;;8.70;78.80;;;;;;5032887;28;20222;-69
2021/11/29 12:14:19;;;;;;;7.10;4.43;;;8.70;79.00;;;;;;5034648;28;20285;-68
2021/11/29 12:16:58;;;;;;;4.67;4.17;;;8.70;78.00;;;;;;5033794;28;20215;-70
2021/11/29 12:19:50;;;;;;;7.07;4.40;;;8.60;78.00;;;;;;5035635;28;20303;-68
2021/11/29 12:22:16;;;;;;;7.30;4.70;;;8.60;78.20;;;;;;5034953;28;20214;-68
2021/11/29 12:24:56;;;;;;;8.77;4.53;;;8.60;79.20;;;;;;5041426;28;20214;-68
2021/11/29 12:27:50;;;;;;;8.53;5.13;;;8.60;79.60;;;;;;5035394;28;20571;-68
2021/11/29 12:30:44;;;;;;;8.97;4.77;;;8.60;79.70;;;;;;5039838;28;20234;-68
2021/11/29 12:33:16;;;;;;;6.13;5.20;;;8.60;79.70;;;;;;5053399;28;20293;-68
2021/11/29 12:35:58;;;;;;;8.10;5.47;;;8.60;80.30;;;;;;5046695;28;20552;-68
2021/11/29 12:38:25;;;;;;;7.10;5.37;;;8.60;80.70;;;;;;5039253;28;20549;-69
2021/11/29 12:41:05;;;;;;;7.50;5.27;;;8.70;80.90;;;;;;5044889;28;20225;-68
2021/11/29 12:43:32;;;;;;;5.70;5.13;;;8.80;81.20;;;;;;5038105;28;20674;-69
2021/11/29 12:46:21;;;;;;;6.77;5.27;;;8.80;80.50;;;;;;5040868;28;20215;-68
2021/11/29 12:48:50;;;;;;;6.80;4.67;;;8.90;80.40;;;;;;5043282;28;20214;-68
2021/11/29 12:51:40;;;;;;;5.90;4.53;;;9.00;78.80;;;;;;5042107;28;20241;-69
2021/11/29 12:54:35;;;;;;;4.17;3.47;;;9.10;78.50;;;;;;5041863;28;20595;-68
2021/11/29 12:57:17;;;;;;;3.30;3.00;;;9.30;74.70;;;;;;5058800;28;20301;-68
2021/11/29 13:00:05;;;;;;;5.60;3.50;;;9.50;73.40;;;;;;5040552;28;20221;-68
2021/11/29 13:02:38;;;;;;;4.13;3.47;;;9.50;74.10;;;;;;5053864;28;20629;-68
2021/11/29 13:05:27;;;;;;;4.27;3.00;;;9.60;72.30;;;;;;5040571;28;20214;-68
2021/11/29 13:08:18;;;;;;;4.00;3.70;;;9.50;73.20;;;;;;5048090;28;20221;-68